Time;durP1;ratioP1;P1;durP2;ratioP2;P2;SDS_P1;SDS_P2;PMS_P1;PMS_P2;Temp;Humidity;BMP_temperature;BMP_pressure;BME280_temperature;BME280_humidity;BME280_pressure;Samples;Min_cycle;Max_cycle;Signal;HPM_P1;HPM_P2
2022/04/26 03:36:26;;;;;;;3.20;2.65;;;16.10;59.80;;;;;;10455257;28;20111;-59
2022/04/26 03:41:27;;;;;;;3.85;2.70;;;16.10;59.70;;;;;;10453135;28;20556;-60
2022/04/26 03:46:28;;;;;;;3.33;2.70;;;16.10;59.80;;;;;;10454519;28;20032;-61
2022/04/26 03:51:29;;;;;;;3.75;2.65;;;16.10;59.70;;;;;;10452740;28;20382;-60
2022/04/26 03:56:29;;;;;;;2.80;2.42;;;16.10;59.80;;;;;;10454030;28;20056;-60
2022/04/26 04:01:30;;;;;;;3.38;2.42;;;16.10;59.80;;;;;;10453652;28;20104;-60
2022/04/26 04:06:31;;;;;;;3.33;2.70;;;16.10;59.80;;;;;;10453304;28;20075;-61
2022/04/26 04:11:32;;;;;;;3.10;2.40;;;16.10;59.80;;;;;;10453291;28;20032;-61
2022/04/26 04:16:32;;;;;;;3.88;2.40;;;16.10;59.80;;;;;;10452888;28;20071;-61
2022/04/26 04:21:33;;;;;;;2.85;2.30;;;16.00;59.70;;;;;;10463520;28;20497;-61
2022/04/26 04:26:34;;;;;;;3.10;2.60;;;16.10;59.80;;;;;;10493078;28;20082;-60
2022/04/26 04:31:35;;;;;;;3.72;3.00;;;16.00;59.80;;;;;;10490762;28;20051;-61
2022/04/26 04:36:36;;;;;;;2.90;2.60;;;16.00;59.80;;;;;;10494813;28;20024;-60
2022/04/26 04:41:37;;;;;;;3.58;2.33;;;16.00;59.70;;;;;;10495069;28;20102;-59
2022/04/26 04:46:37;;;;;;;3.20;2.40;;;16.00;59.80;;;;;;10495237;28;20540;-61
2022/04/26 04:51:38;;;;;;;4.68;2.88;;;16.00;59.80;;;;;;10495155;28;20111;-61
2022/04/26 04:56:39;;;;;;;3.17;2.30;;;16.00;59.80;;;;;;10494800;28;20033;-61
2022/04/26 05:01:40;;;;;;;2.83;2.03;;;16.00;59.80;;;;;;10494963;28;20093;-60
2022/04/26 05:06:40;;;;;;;3.38;2.72;;;16.00;59.80;;;;;;10494747;28;20031;-61
2022/04/26 05:11:41;;;;;;;3.28;2.30;;;16.00;59.80;;;;;;10510126;28;20112;-61
2022/04/26 05:16:42;;;;;;;3.05;2.20;;;16.00;59.80;;;;;;10494430;28;20082;-60
2022/04/26 05:21:42;;;;;;;3.15;2.47;;;16.00;59.80;;;;;;10509950;28;20063;-60
2022/04/26 05:26:43;;;;;;;4.22;2.63;;;16.00;59.90;;;;;;10514653;28;20119;-60
2022/04/26 05:31:44;;;;;;;3.30;2.85;;;16.00;59.90;;;;;;10517189;28;20086;-61
2022/04/26 05:36:44;;;;;;;3.38;2.60;;;16.00;59.90;;;;;;10517508;28;20564;-60
2022/04/26 05:41:45;;;;;;;3.40;2.20;;;15.90;59.90;;;;;;10501603;28;20103;-61
2022/04/26 05:46:45;;;;;;;3.40;2.53;;;15.90;59.90;;;;;;10516962;28;20067;-61
2022/04/26 05:51:46;;;;;;;3.22;2.05;;;15.90;60.00;;;;;;10516696;28;20071;-60
2022/04/26 05:56:48;;;;;;;3.03;2.55;;;15.90;60.00;;;;;;10501160;28;20442;-60
2022/04/26 06:01:50;;;;;;;2.97;2.38;;;15.90;60.00;;;;;;10516249;28;20028;-60
2022/04/26 06:06:52;;;;;;;3.00;2.38;;;15.90;60.00;;;;;;10516126;28;20043;-59
2022/04/26 06:11:52;;;;;;;2.78;1.70;;;15.90;60.00;;;;;;10515895;28;20059;-60
2022/04/26 06:16:53;;;;;;;4.80;2.47;;;15.90;60.00;;;;;;10500373;28;20079;-61
2022/04/26 06:21:54;;;;;;;2.83;2.20;;;15.90;60.00;;;;;;10499775;28;20079;-59
2022/04/26 06:26:54;;;;;;;3.05;2.03;;;15.90;60.00;;;;;;10515343;28;20112;-62
2022/04/26 06:31:55;;;;;;;3.08;2.20;;;15.90;60.00;;;;;;10499811;28;20076;-61
2022/04/26 06:36:56;;;;;;;2.88;2.30;;;15.90;60.00;;;;;;10499356;28;20028;-59
2022/04/26 06:41:56;;;;;;;2.97;2.53;;;15.90;60.00;;;;;;10499266;28;20115;-60
2022/04/26 06:46:57;;;;;;;3.20;2.20;;;15.90;60.00;;;;;;10499199;28;20083;-61
2022/04/26 06:51:58;;;;;;;3.65;2.47;;;15.90;60.00;;;;;;10514430;28;20028;-58
2022/04/26 06:56:59;;;;;;;2.72;2.30;;;15.90;60.00;;;;;;10498760;28;20097;-61
2022/04/26 07:01:59;;;;;;;2.92;2.47;;;15.90;60.10;;;;;;10498647;28;20083;-59
2022/04/26 07:07:00;;;;;;;2.65;2.10;;;15.90;60.00;;;;;;10498065;28;20560;-60
2022/04/26 07:12:01;;;;;;;2.72;2.30;;;15.90;60.60;;;;;;10498154;28;20028;-61
2022/04/26 07:17:02;;;;;;;3.75;2.50;;;15.90;60.10;;;;;;10498003;28;20027;-59
2022/04/26 07:22:03;;;;;;;2.33;2.10;;;15.90;60.10;;;;;;10497638;28;20040;-60
2022/04/26 07:27:04;;;;;;;3.88;2.75;;;15.90;60.10;;;;;;10497192;28;20550;-61
2022/04/26 07:32:05;;;;;;;3.03;2.33;;;15.90;60.30;;;;;;10497036;28;20076;-61
2022/04/26 07:37:06;;;;;;;3.97;2.53;;;15.90;60.60;;;;;;10497431;28;20078;-60
2022/04/26 07:42:07;;;;;;;4.10;2.30;;;16.00;60.60;;;;;;10496967;28;20449;-60
2022/04/26 07:47:08;;;;;;;3.17;2.20;;;16.00;60.60;;;;;;10512055;28;20500;-61
2022/04/26 07:52:08;;;;;;;3.90;2.67;;;16.00;60.70;;;;;;10512358;28;20025;-61
2022/04/26 07:57:09;;;;;;;6.28;2.80;;;16.10;60.60;;;;;;10496326;28;20107;-61
2022/04/26 08:02:10;;;;;;;3.65;2.42;;;16.10;60.50;;;;;;10511615;28;20071;-60
2022/04/26 08:07:11;;;;;;;4.63;2.70;;;16.10;60.50;;;;;;10496639;28;20024;-61
2022/04/26 08:12:12;;;;;;;4.03;2.80;;;16.10;60.40;;;;;;10510604;28;20059;-60
2022/04/26 08:17:15;;;;;;;3.85;2.67;;;16.10;60.30;;;;;;10493000;28;20115;-59
2022/04/26 08:22:15;;;;;;;2.85;2.17;;;16.20;60.40;;;;;;10492796;28;20073;-60
2022/04/26 08:27:25;;;;;;;3.63;2.70;;;16.20;60.40;;;;;;10508025;28;20086;-59
2022/04/26 08:32:28;;;;;;;3.47;2.35;;;16.20;60.50;;;;;;10491039;28;20052;-60
2022/04/26 08:37:29;;;;;;;3.30;2.50;;;16.20;60.40;;;;;;10495042;28;20484;-61
2022/04/26 08:42:36;;;;;;;2.60;2.30;;;16.20;60.60;;;;;;10495279;28;20154;-60
2022/04/26 08:52:57;;;;;;;3.08;2.28;;;16.30;60.70;;;;;;10495663;28;20056;-60
2022/04/26 08:57:58;;;;;;;2.60;2.00;;;16.30;60.60;;;;;;10510753;28;20025;-61
2022/04/26 09:03:05;;;;;;;3.22;2.25;;;16.30;60.60;;;;;;10503203;28;20040;-59
2022/04/26 09:08:32;;;;;;;3.38;2.22;;;16.30;60.60;;;;;;10502828;28;20097;-60
2022/04/26 09:13:40;;;;;;;3.38;2.08;;;16.40;60.50;;;;;;10502489;28;20046;-60
2022/04/26 09:18:54;;;;;;;2.70;2.08;;;16.30;60.60;;;;;;10517902;28;20453;-58
2022/04/26 09:24:14;;;;;;;3.58;2.90;;;16.40;60.60;;;;;;10502305;28;20362;-60
2022/04/26 09:29:19;;;;;;;3.20;2.05;;;16.40;60.50;;;;;;10502035;28;20020;-59
2022/04/26 09:34:23;;;;;;;3.75;2.65;;;16.40;60.50;;;;;;10517529;28;20413;-60
2022/04/26 09:39:25;;;;;;;2.95;2.53;;;16.40;60.50;;;;;;10501896;28;20537;-60
2022/04/26 09:44:33;;;;;;;3.60;2.42;;;16.40;60.50;;;;;;10501406;28;20099;-60
2022/04/26 09:49:38;;;;;;;2.47;2.10;;;16.40;60.50;;;;;;10516949;28;20045;-60
2022/04/26 09:54:39;;;;;;;3.10;2.05;;;16.40;60.40;;;;;;10516935;28;20089;-60
2022/04/26 09:59:44;;;;;;;2.90;2.22;;;16.50;60.40;;;;;;10501119;28;20145;-59
2022/04/26 10:04:54;;;;;;;3.00;2.17;;;16.50;60.30;;;;;;10516078;28;20439;-61
2022/04/26 10:09:56;;;;;;;2.72;2.22;;;16.50;60.20;;;;;;10515123;28;20484;-60
2022/04/26 10:14:58;;;;;;;2.53;2.00;;;16.60;60.30;;;;;;10500196;28;20024;-60
2022/04/26 10:20:00;;;;;;;3.72;2.20;;;16.60;60.20;;;;;;10515779;28;20372;-60
2022/04/26 10:25:12;;;;;;;3.58;2.33;;;16.60;60.20;;;;;;10513167;28;20032;-60
2022/04/26 10:30:13;;;;;;;2.25;1.73;;;16.70;60.20;;;;;;10498219;28;20051;-60
2022/04/26 10:35:25;;;;;;;2.80;1.75;;;16.70;60.10;;;;;;10499770;28;20128;-61
2022/04/26 10:40:26;;;;;;;3.17;1.80;;;16.80;60.10;;;;;;10499574;28;20029;-60
2022/04/26 10:45:27;;;;;;;2.78;2.00;;;16.80;60.00;;;;;;10499270;28;20033;-61
2022/04/26 10:50:32;;;;;;;6.93;2.63;;;16.80;59.80;;;;;;10514555;28;20106;-61
2022/04/26 10:55:32;;;;;;;2.47;2.08;;;16.80;59.90;;;;;;10514429;28;20032;-60
2022/04/26 11:00:34;;;;;;;2.60;1.77;;;16.80;60.00;;;;;;10498794;28;20036;-60
2022/04/26 11:05:35;;;;;;;2.78;2.35;;;16.70;60.00;;;;;;10513797;28;20040;-60
2022/04/26 11:16:12;;;;;;;4.00;2.58;;;16.80;59.90;;;;;;10511383;28;20115;-60
2022/04/26 11:21:13;;;;;;;2.97;2.22;;;16.80;59.90;;;;;;10497489;28;20393;-60
2022/04/26 11:31:40;;;;;;;2.47;2.10;;;16.90;59.70;;;;;;10510810;28;20463;-60
2022/04/26 11:36:41;;;;;;;3.85;2.50;;;16.90;59.70;;;;;;10512932;28;20035;-61
2022/04/26 11:41:43;;;;;;;3.08;1.77;;;16.90;59.80;;;;;;10512505;28;20031;-61
2022/04/26 11:46:59;;;;;;;3.92;2.20;;;16.90;60.00;;;;;;10512070;28;20036;-60
2022/04/26 11:52:01;;;;;;;4.53;2.40;;;17.00;59.90;;;;;;10496648;28;20025;-61
2022/04/26 11:57:04;;;;;;;2.20;1.92;;;17.00;59.80;;;;;;10496370;28;20439;-60
2022/04/26 12:02:05;;;;;;;4.30;2.40;;;17.00;59.70;;;;;;10496181;28;20485;-60
2022/04/26 12:07:06;;;;;;;3.00;2.20;;;17.00;59.60;;;;;;10496441;28;20115;-60
2022/04/26 12:12:10;;;;;;;3.33;2.38;;;17.10;59.70;;;;;;10496185;28;20418;-60
2022/04/26 12:17:18;;;;;;;3.00;2.25;;;17.10;59.60;;;;;;10495873;28;20043;-61
2022/04/26 12:22:19;;;;;;;4.20;2.45;;;17.10;59.70;;;;;;10495811;28;20032;-59
2022/04/26 12:27:26;;;;;;;3.65;2.08;;;17.10;59.50;;;;;;10495438;28;20124;-57
2022/04/26 12:32:28;;;;;;;3.05;2.00;;;17.20;59.40;;;;;;10495594;28;20043;-60
2022/04/26 12:37:31;;;;;;;2.40;1.75;;;17.30;59.40;;;;;;10495307;28;20362;-59
2022/04/26 12:42:34;;;;;;;2.67;2.00;;;17.20;59.80;;;;;;10495005;28;20033;-61
2022/04/26 12:53:04;;;;;;;3.95;1.90;;;17.20;59.40;;;;;;10495940;28;20040;-60
2022/04/26 12:58:10;;;;;;;3.33;2.22;;;17.20;59.50;;;;;;10495054;28;20044;-60
2022/04/26 13:03:14;;;;;;;2.58;1.80;;;17.30;59.30;;;;;;10495302;28;20086;-60
2022/04/26 13:08:18;;;;;;;2.88;2.08;;;17.30;59.00;;;;;;10494819;28;20028;-61
2022/04/26 13:13:19;;;;;;;2.83;1.98;;;17.30;59.20;;;;;;10494877;28;20037;-61
2022/04/26 13:18:20;;;;;;;3.30;1.95;;;17.30;59.30;;;;;;10494365;28;20106;-60
2022/04/26 13:23:21;;;;;;;2.35;1.85;;;17.30;59.20;;;;;;10494550;28;20071;-60
2022/04/26 13:28:22;;;;;;;3.45;2.22;;;17.40;59.10;;;;;;10494412;28;20050;-59
2022/04/26 13:33:23;;;;;;;2.75;2.00;;;17.40;58.90;;;;;;10494055;28;20072;-60
2022/04/26 13:38:24;;;;;;;2.17;1.80;;;17.40;58.80;;;;;;10494397;28;20040;-61
2022/04/26 13:43:25;;;;;;;5.03;1.88;;;17.40;58.80;;;;;;10493934;28;20099;-61
2022/04/26 13:48:26;;;;;;;2.97;2.08;;;17.40;58.90;;;;;;10499604;28;20112;-62
2022/04/26 13:53:30;;;;;;;2.80;2.00;;;17.30;59.10;;;;;;10516989;28;20031;-60
2022/04/26 13:58:31;;;;;;;2.47;2.20;;;17.40;59.10;;;;;;10501250;28;20112;-59
2022/04/26 14:03:32;;;;;;;3.58;2.45;;;17.30;58.80;;;;;;10501276;28;20451;-61
2022/04/26 14:08:32;;;;;;;3.03;2.20;;;17.30;59.00;;;;;;10500564;28;20664;-60
2022/04/26 14:21:47;;;;;;;2.50;1.90;;;17.30;58.90;;;;;;10516474;28;20055;-61
2022/04/26 14:24:12;;;;;;;4.63;2.73;;;17.30;59.00;;;;;;10500608;28;20040;-60
2022/04/26 14:29:13;;;;;;;2.55;1.95;;;17.30;58.90;;;;;;10515340;28;20508;-60
2022/04/26 14:34:14;;;;;;;3.72;2.15;;;17.30;58.90;;;;;;10499434;28;20072;-61
2022/04/26 14:39:16;;;;;;;2.42;1.98;;;17.30;58.90;;;;;;10499566;28;20385;-61
2022/04/26 14:44:16;;;;;;;2.55;2.13;;;17.20;58.90;;;;;;10514695;28;20036;-60
2022/04/26 14:49:17;;;;;;;3.05;2.17;;;17.20;59.20;;;;;;10499200;28;20056;-60
2022/04/26 14:54:18;;;;;;;3.20;2.00;;;17.10;59.30;;;;;;10499109;28;20103;-62
2022/04/26 14:59:20;;;;;;;5.15;2.17;;;17.10;59.40;;;;;;10514030;28;20035;-61
2022/04/26 15:04:23;;;;;;;2.72;1.90;;;17.10;59.30;;;;;;10498475;28;20086;-60
2022/04/26 15:20:04;;;;;;;2.80;1.98;;;17.10;59.30;;;;;;10511198;28;20115;-61
2022/04/26 15:25:06;;;;;;;2.38;1.98;;;17.20;59.20;;;;;;10510848;28;20437;-60
2022/04/26 15:30:10;;;;;;;2.85;1.80;;;17.10;59.20;;;;;;10497185;28;20408;-60
2022/04/26 15:35:11;;;;;;;3.22;1.92;;;17.10;59.30;;;;;;10497328;28;20261;-60
2022/04/26 15:40:12;;;;;;;3.00;2.10;;;17.10;59.40;;;;;;10497323;28;20040;-61
2022/04/26 15:45:12;;;;;;;2.47;1.83;;;17.00;59.40;;;;;;10496788;28;20038;-60
2022/04/26 15:50:13;;;;;;;2.92;2.33;;;17.00;59.50;;;;;;10496820;28;20075;-61
2022/04/26 15:55:14;;;;;;;2.80;2.05;;;17.00;59.40;;;;;;10512372;28;20467;-61
2022/04/26 16:00:16;;;;;;;3.13;2.20;;;17.00;59.40;;;;;;10496486;28;20488;-61
2022/04/26 16:05:17;;;;;;;2.35;1.80;;;17.00;59.40;;;;;;10496237;28;20029;-62
2022/04/26 16:20:56;;;;;;;2.90;2.13;;;17.00;59.40;;;;;;10495720;28;20033;-60
2022/04/26 16:26:02;;;;;;;4.97;2.38;;;17.00;59.40;;;;;;10495706;28;20032;-60
2022/04/26 16:31:03;;;;;;;3.42;2.00;;;16.90;59.30;;;;;;10495413;28;20051;-60
2022/04/26 16:36:04;;;;;;;2.72;1.75;;;17.00;59.40;;;;;;10495558;28;20029;-60
2022/04/26 16:41:05;;;;;;;2.78;2.13;;;16.90;59.40;;;;;;10495417;28;20044;-60
2022/04/26 16:46:06;;;;;;;3.38;2.13;;;16.90;59.10;;;;;;10495101;28;20369;-61
2022/04/26 16:51:07;;;;;;;2.70;1.90;;;16.90;59.00;;;;;;10495207;28;20024;-62
2022/04/26 16:56:07;;;;;;;2.40;1.90;;;17.00;59.00;;;;;;10495676;28;20032;-61
2022/04/26 17:01:09;;;;;;;2.55;1.80;;;17.00;59.00;;;;;;10494936;28;20048;-61
2022/04/26 17:06:10;;;;;;;2.55;2.08;;;17.00;59.00;;;;;;10494870;28;20020;-61
2022/04/26 17:16:30;;;;;;;3.15;2.20;;;17.00;59.00;;;;;;10494920;28;20044;-61
2022/04/26 17:21:32;;;;;;;2.55;2.00;;;17.00;59.10;;;;;;10498603;28;20071;-61
2022/04/26 17:26:32;;;;;;;2.63;2.30;;;17.00;59.10;;;;;;10517738;28;20052;-60
2022/04/26 17:31:33;;;;;;;4.05;2.25;;;17.00;59.10;;;;;;10502133;28;20090;-62
2022/04/26 17:36:34;;;;;;;2.63;1.98;;;16.90;59.20;;;;;;10501932;28;20107;-61
2022/04/26 17:41:34;;;;;;;2.63;2.10;;;16.90;59.80;;;;;;10517515;28;20052;-61
2022/04/26 17:46:36;;;;;;;3.00;2.30;;;16.90;59.20;;;;;;10501461;28;20063;-61
2022/04/26 17:51:37;;;;;;;3.88;2.67;;;16.90;59.20;;;;;;10501673;28;20033;-61
2022/04/26 17:56:39;;;;;;;3.63;2.35;;;16.90;59.20;;;;;;10501111;28;20067;-60
2022/04/26 18:01:40;;;;;;;2.10;1.83;;;16.90;59.10;;;;;;10501655;28;20024;-60
2022/04/26 18:06:41;;;;;;;2.83;2.20;;;16.90;59.10;;;;;;10501034;28;20029;-61
2022/04/26 18:11:41;;;;;;;5.53;2.20;;;16.90;59.00;;;;;;10500777;28;20385;-61
2022/04/26 18:16:42;;;;;;;4.00;2.08;;;16.90;59.00;;;;;;10500872;28;20097;-59
2022/04/26 18:21:43;;;;;;;3.42;2.10;;;16.80;58.90;;;;;;10500279;28;20108;-61
2022/04/26 18:26:43;;;;;;;3.20;1.75;;;16.80;58.90;;;;;;10500198;28;20082;-61
2022/04/26 18:31:46;;;;;;;3.22;2.03;;;16.80;58.90;;;;;;10499176;28;20581;-61
2022/04/26 18:36:50;;;;;;;3.67;2.20;;;16.80;58.80;;;;;;10499700;28;20059;-60
2022/04/26 18:41:56;;;;;;;1.83;1.50;;;16.80;58.90;;;;;;10515331;28;20024;-61
2022/04/26 18:46:57;;;;;;;3.00;2.10;;;16.80;58.90;;;;;;10498264;28;20032;-61
2022/04/26 18:51:58;;;;;;;2.75;2.28;;;16.80;58.80;;;;;;10498802;28;20025;-61
2022/04/26 18:56:58;;;;;;;2.63;2.00;;;16.80;58.80;;;;;;10498983;28;20067;-61
2022/04/26 19:01:59;;;;;;;2.40;1.92;;;16.80;58.80;;;;;;10498724;28;20060;-61
2022/04/26 19:07:00;;;;;;;2.20;1.88;;;16.80;58.90;;;;;;10498603;28;20029;-61
2022/04/26 19:12:15;;;;;;;3.15;2.08;;;16.80;58.90;;;;;;10498361;28;20103;-60
2022/04/26 19:17:19;;;;;;;3.60;2.38;;;16.70;58.90;;;;;;10496863;28;20037;-61
2022/04/26 19:22:20;;;;;;;2.40;1.85;;;16.70;58.80;;;;;;10497696;28;20414;-62
2022/04/26 19:27:20;;;;;;;2.55;2.15;;;16.70;58.90;;;;;;10497434;28;20040;-60
2022/04/26 19:32:21;;;;;;;2.50;2.10;;;16.70;58.90;;;;;;10496146;28;20071;-61
2022/04/26 19:37:22;;;;;;;3.63;2.63;;;16.70;58.90;;;;;;10496720;28;20079;-59
2022/04/26 19:42:22;;;;;;;3.22;2.17;;;16.70;58.80;;;;;;10495522;28;20068;-61
2022/04/26 19:47:23;;;;;;;2.53;2.08;;;16.70;58.90;;;;;;10494710;28;20036;-60
2022/04/26 19:52:24;;;;;;;2.63;1.98;;;16.70;58.90;;;;;;10511226;28;20035;-60
2022/04/26 19:57:25;;;;;;;3.17;2.10;;;16.70;58.90;;;;;;10511096;28;20040;-60
2022/04/26 20:02:26;;;;;;;2.33;1.73;;;16.70;58.90;;;;;;10511125;28;20028;-60
2022/04/26 20:07:27;;;;;;;2.80;2.05;;;16.70;58.90;;;;;;10494975;28;20381;-60
2022/04/26 20:12:28;;;;;;;2.83;2.28;;;16.70;59.00;;;;;;10495037;28;20020;-60
2022/04/26 20:17:29;;;;;;;3.28;2.10;;;16.70;58.90;;;;;;10495312;28;20107;-61
2022/04/26 20:22:31;;;;;;;2.63;1.77;;;16.70;58.80;;;;;;10494623;28;20036;-61
2022/04/26 20:32:52;;;;;;;4.15;1.95;;;16.70;58.90;;;;;;10494719;28;20072;-60
2022/04/26 20:37:53;;;;;;;2.80;1.98;;;16.70;58.80;;;;;;10494425;28;20030;-61
2022/04/26 20:42:57;;;;;;;3.47;2.08;;;16.70;58.80;;;;;;10494323;28;20056;-59
2022/04/26 20:47:58;;;;;;;7.68;2.33;;;16.70;58.80;;;;;;10494497;28;20059;-61
2022/04/26 20:52:58;;;;;;;2.58;1.85;;;16.70;58.80;;;;;;10494247;28;20058;-59
2022/04/26 20:58:00;;;;;;;2.28;1.67;;;16.70;58.70;;;;;;10501269;28;20124;-60
2022/04/26 21:03:01;;;;;;;3.17;2.38;;;16.70;58.70;;;;;;10502357;28;20052;-60
2022/04/26 21:08:02;;;;;;;2.58;2.05;;;16.70;58.70;;;;;;10502303;28;20476;-60
2022/04/26 21:18:23;;;;;;;3.22;1.90;;;16.70;58.70;;;;;;10502425;28;20044;-60
2022/04/26 21:23:24;;;;;;;2.83;2.25;;;16.70;58.80;;;;;;10501387;28;20020;-60
2022/04/26 21:28:25;;;;;;;2.80;1.92;;;16.70;58.70;;;;;;10501309;28;20112;-60
2022/04/26 21:33:25;;;;;;;2.25;2.00;;;16.70;58.60;;;;;;10500885;28;20071;-61
2022/04/26 21:38:26;;;;;;;2.50;1.90;;;16.70;58.60;;;;;;10516659;28;20025;-61
2022/04/26 21:43:27;;;;;;;3.22;2.05;;;16.70;58.70;;;;;;10500647;28;20439;-61
2022/04/26 21:48:33;;;;;;;3.15;2.20;;;16.60;58.60;;;;;;10516059;28;20544;-59
2022/04/26 21:53:34;;;;;;;2.78;2.38;;;16.60;58.80;;;;;;10515620;28;20025;-60
2022/04/26 21:58:35;;;;;;;2.38;1.83;;;16.60;58.80;;;;;;10515950;28;20052;-62
2022/04/26 22:03:35;;;;;;;2.55;2.13;;;16.60;58.70;;;;;;10498845;28;20028;-61
2022/04/26 22:08:36;;;;;;;2.20;1.70;;;16.60;58.60;;;;;;10514714;28;20032;-60
2022/04/26 22:13:37;;;;;;;2.67;2.33;;;16.60;58.70;;;;;;10499596;28;20033;-61
2022/04/26 22:18:37;;;;;;;3.28;2.25;;;16.60;58.70;;;;;;10499714;28;20436;-60
2022/04/26 22:23:38;;;;;;;2.55;1.70;;;16.60;58.50;;;;;;10495693;28;20063;-60
2022/04/26 22:28:39;;;;;;;3.20;2.20;;;16.60;58.40;;;;;;10498923;28;20071;-60
2022/04/26 22:33:39;;;;;;;2.92;1.88;;;16.60;58.40;;;;;;10514615;28;20140;-59
2022/04/26 22:38:40;;;;;;;3.03;1.77;;;16.60;58.30;;;;;;10498672;28;20052;-59
2022/04/26 22:43:42;;;;;;;2.42;1.88;;;16.60;58.20;;;;;;10513992;28;20063;-58
2022/04/26 22:48:43;;;;;;;2.53;2.25;;;16.60;58.30;;;;;;10498203;28;20028;-62
2022/04/26 22:53:43;;;;;;;3.83;2.35;;;16.60;58.30;;;;;;10498039;28;20029;-61
2022/04/26 22:58:44;;;;;;;2.63;1.77;;;16.60;58.30;;;;;;10496472;28;20495;-62
2022/04/26 23:03:45;;;;;;;1.77;1.58;;;16.60;58.30;;;;;;10513002;28;20060;-60
2022/04/26 23:08:46;;;;;;;2.33;1.88;;;16.60;58.30;;;;;;10512863;28;20028;-61
2022/04/26 23:13:47;;;;;;;3.92;2.35;;;16.50;58.20;;;;;;10497233;28;20056;-60
2022/04/26 23:18:48;;;;;;;2.50;2.00;;;16.50;58.20;;;;;;10512571;28;20499;-59
2022/04/26 23:23:48;;;;;;;2.35;1.98;;;16.50;58.20;;;;;;10496686;28;20056;-60
2022/04/26 23:28:49;;;;;;;3.17;2.45;;;16.50;58.20;;;;;;10496976;28;20555;-61
2022/04/26 23:39:09;;;;;;;1.60;1.50;;;16.50;58.10;;;;;;10496313;28;20032;-61
2022/04/26 23:44:10;;;;;;;3.55;2.00;;;16.50;58.10;;;;;;10496058;28;20028;-59
2022/04/26 23:49:11;;;;;;;3.47;2.13;;;16.50;58.20;;;;;;10511431;28;20067;-61
2022/04/26 23:54:11;;;;;;;3.47;2.47;;;16.40;58.10;;;;;;10496118;28;20085;-59
2022/04/26 23:59:12;;;;;;;2.25;2.05;;;16.40;58.10;;;;;;10510968;28;20085;-61
